sensor_id;sensor_type;location;lat;lon;timestamp;P1;durP1;ratioP1;P2;durP2;ratioP2
11839;SDS011;5979;50.800;4.904;2024-01-30T00:01:36;5.20;;;4.70;;
11839;SDS011;5979;50.800;4.904;2024-01-30T00:04:02;5.50;;;5.00;;
11839;SDS011;5979;50.800;4.904;2024-01-30T00:06:27;4.90;;;4.50;;
11839;SDS011;5979;50.800;4.904;2024-01-30T00:08:53;7.13;;;5.40;;
11839;SDS011;5979;50.800;4.904;2024-01-30T00:11:19;7.65;;;5.53;;
11839;SDS011;5979;50.800;4.904;2024-01-30T00:13:45;6.68;;;4.93;;
11839;SDS011;5979;50.800;4.904;2024-01-30T00:16:23;5.38;;;4.88;;
11839;SDS011;5979;50.800;4.904;2024-01-30T00:18:53;5.25;;;4.85;;
11839;SDS011;5979;50.800;4.904;2024-01-30T00:21:19;5.63;;;5.13;;
11839;SDS011;5979;50.800;4.904;2024-01-30T00:23:45;5.68;;;5.18;;
11839;SDS011;5979;50.800;4.904;2024-01-30T00:26:11;5.85;;;5.35;;
11839;SDS011;5979;50.800;4.904;2024-01-30T00:28:37;5.97;;;5.45;;
11839;SDS011;5979;50.800;4.904;2024-01-30T00:31:03;6.30;;;5.70;;
11839;SDS011;5979;50.800;4.904;2024-01-30T00:33:29;5.63;;;4.90;;
11839;SDS011;5979;50.800;4.904;2024-01-30T00:35:55;6.47;;;5.25;;
11839;SDS011;5979;50.800;4.904;2024-01-30T00:38:21;6.78;;;5.70;;
11839;SDS011;5979;50.800;4.904;2024-01-30T00:40:47;5.97;;;5.38;;
11839;SDS011;5979;50.800;4.904;2024-01-30T00:43:13;5.20;;;4.80;;
11839;SDS011;5979;50.800;4.904;2024-01-30T00:45:40;6.70;;;6.10;;
11839;SDS011;5979;50.800;4.904;2024-01-30T00:48:05;5.75;;;5.25;;
11839;SDS011;5979;50.800;4.904;2024-01-30T00:50:31;6.75;;;6.00;;
11839;SDS011;5979;50.800;4.904;2024-01-30T00:52:57;6.38;;;5.78;;
11839;SDS011;5979;50.800;4.904;2024-01-30T00:55:22;7.30;;;5.85;;
11839;SDS011;5979;50.800;4.904;2024-01-30T00:57:48;7.70;;;5.93;;
11839;SDS011;5979;50.800;4.904;2024-01-30T01:00:14;7.00;;;5.90;;
11839;SDS011;5979;50.800;4.904;2024-01-30T01:02:43;6.50;;;5.85;;
11839;SDS011;5979;50.800;4.904;2024-01-30T01:05:09;7.00;;;6.40;;
11839;SDS011;5979;50.800;4.904;2024-01-30T01:07:35;6.18;;;5.57;;
11839;SDS011;5979;50.800;4.904;2024-01-30T01:10:01;6.70;;;5.60;;
11839;SDS011;5979;50.800;4.904;2024-01-30T01:12:27;7.55;;;5.25;;
11839;SDS011;5979;50.800;4.904;2024-01-30T01:14:53;6.88;;;6.15;;
11839;SDS011;5979;50.800;4.904;2024-01-30T01:17:19;6.38;;;5.43;;
11839;SDS011;5979;50.800;4.904;2024-01-30T01:19:45;7.05;;;5.75;;
11839;SDS011;5979;50.800;4.904;2024-01-30T01:22:10;7.55;;;6.43;;
11839;SDS011;5979;50.800;4.904;2024-01-30T01:24:36;5.68;;;5.22;;
11839;SDS011;5979;50.800;4.904;2024-01-30T01:27:02;6.15;;;5.65;;
11839;SDS011;5979;50.800;4.904;2024-01-30T01:29:28;6.65;;;5.60;;
11839;SDS011;5979;50.800;4.904;2024-01-30T01:31:54;5.78;;;5.28;;
11839;SDS011;5979;50.800;4.904;2024-01-30T01:34:21;6.65;;;5.63;;
11839;SDS011;5979;50.800;4.904;2024-01-30T01:36:47;5.63;;;5.22;;
11839;SDS011;5979;50.800;4.904;2024-01-30T01:39:13;5.63;;;5.13;;
11839;SDS011;5979;50.800;4.904;2024-01-30T01:41:39;6.15;;;5.65;;
11839;SDS011;5979;50.800;4.904;2024-01-30T01:44:04;7.18;;;5.80;;
11839;SDS011;5979;50.800;4.904;2024-01-30T01:46:32;5.93;;;4.65;;
11839;SDS011;5979;50.800;4.904;2024-01-30T01:48:59;5.75;;;5.13;;
11839;SDS011;5979;50.800;4.904;2024-01-30T01:51:27;5.70;;;5.13;;
11839;SDS011;5979;50.800;4.904;2024-01-30T01:53:54;7.22;;;5.07;;
11839;SDS011;5979;50.800;4.904;2024-01-30T01:56:22;6.15;;;5.65;;
11839;SDS011;5979;50.800;4.904;2024-01-30T01:58:49;7.22;;;5.10;;
11839;SDS011;5979;50.800;4.904;2024-01-30T02:01:16;8.25;;;5.40;;
11839;SDS011;5979;50.800;4.904;2024-01-30T02:03:46;5.70;;;5.20;;
11839;SDS011;5979;50.800;4.904;2024-01-30T02:06:15;5.60;;;5.10;;
11839;SDS011;5979;50.800;4.904;2024-01-30T02:08:42;7.72;;;5.57;;
11839;SDS011;5979;50.800;4.904;2024-01-30T02:11:08;6.75;;;5.70;;
11839;SDS011;5979;50.800;4.904;2024-01-30T02:13:35;5.47;;;4.93;;
11839;SDS011;5979;50.800;4.904;2024-01-30T02:16:01;6.88;;;5.60;;
11839;SDS011;5979;50.800;4.904;2024-01-30T02:18:27;4.68;;;4.28;;
11839;SDS011;5979;50.800;4.904;2024-01-30T02:20:53;6.05;;;5.40;;
11839;SDS011;5979;50.800;4.904;2024-01-30T02:23:21;7.20;;;5.43;;
11839;SDS011;5979;50.800;4.904;2024-01-30T02:25:49;6.13;;;5.53;;
11839;SDS011;5979;50.800;4.904;2024-01-30T02:28:17;5.28;;;4.65;;
11839;SDS011;5979;50.800;4.904;2024-01-30T02:30:43;5.35;;;4.93;;
11839;SDS011;5979;50.800;4.904;2024-01-30T02:33:09;6.05;;;5.35;;
11839;SDS011;5979;50.800;4.904;2024-01-30T02:35:35;7.30;;;5.45;;
11839;SDS011;5979;50.800;4.904;2024-01-30T02:38:01;5.70;;;5.15;;
11839;SDS011;5979;50.800;4.904;2024-01-30T02:40:26;6.32;;;4.70;;
11839;SDS011;5979;50.800;4.904;2024-01-30T02:42:52;5.50;;;5.00;;
11839;SDS011;5979;50.800;4.904;2024-01-30T02:45:18;7.05;;;5.45;;
11839;SDS011;5979;50.800;4.904;2024-01-30T02:47:43;6.28;;;5.22;;
11839;SDS011;5979;50.800;4.904;2024-01-30T02:50:09;5.30;;;4.88;;
11839;SDS011;5979;50.800;4.904;2024-01-30T02:52:35;7.63;;;5.63;;
11839;SDS011;5979;50.800;4.904;2024-01-30T02:55:01;8.77;;;5.40;;
11839;SDS011;5979;50.800;4.904;2024-01-30T02:57:27;7.13;;;5.38;;
11839;SDS011;5979;50.800;4.904;2024-01-30T02:59:53;6.80;;;5.28;;
11839;SDS011;5979;50.800;4.904;2024-01-30T03:02:19;5.90;;;5.30;;
11839;SDS011;5979;50.800;4.904;2024-01-30T03:04:45;6.25;;;5.65;;
11839;SDS011;5979;50.800;4.904;2024-01-30T03:07:11;5.90;;;5.03;;
11839;SDS011;5979;50.800;4.904;2024-01-30T03:09:36;8.38;;;5.88;;
11839;SDS011;5979;50.800;4.904;2024-01-30T03:12:03;6.10;;;5.10;;
11839;SDS011;5979;50.800;4.904;2024-01-30T03:14:30;5.70;;;5.05;;
11839;SDS011;5979;50.800;4.904;2024-01-30T03:16:56;12.32;;;5.72;;
11839;SDS011;5979;50.800;4.904;2024-01-30T03:19:22;6.65;;;5.80;;
11839;SDS011;5979;50.800;4.904;2024-01-30T03:21:48;5.80;;;5.30;;
11839;SDS011;5979;50.800;4.904;2024-01-30T03:24:14;6.50;;;5.57;;
11839;SDS011;5979;50.800;4.904;2024-01-30T03:26:39;6.55;;;5.35;;
11839;SDS011;5979;50.800;4.904;2024-01-30T03:29:05;5.75;;;5.28;;
11839;SDS011;5979;50.800;4.904;2024-01-30T03:31:31;6.82;;;5.68;;
11839;SDS011;5979;50.800;4.904;2024-01-30T03:33:57;6.30;;;5.70;;
11839;SDS011;5979;50.800;4.904;2024-01-30T03:36:23;5.70;;;5.20;;
11839;SDS011;5979;50.800;4.904;2024-01-30T03:38:48;5.18;;;4.78;;
11839;SDS011;5979;50.800;4.904;2024-01-30T03:41:14;7.00;;;5.88;;
11839;SDS011;5979;50.800;4.904;2024-01-30T03:43:40;6.40;;;5.60;;
11839;SDS011;5979;50.800;4.904;2024-01-30T03:46:05;5.88;;;5.30;;
11839;SDS011;5979;50.800;4.904;2024-01-30T03:48:31;6.40;;;5.80;;
11839;SDS011;5979;50.800;4.904;2024-01-30T03:50:57;5.82;;;5.25;;
11839;SDS011;5979;50.800;4.904;2024-01-30T03:53:22;6.07;;;5.47;;
11839;SDS011;5979;50.800;4.904;2024-01-30T03:55:48;7.78;;;5.65;;
11839;SDS011;5979;50.800;4.904;2024-01-30T03:58:14;5.55;;;4.97;;
11839;SDS011;5979;50.800;4.904;2024-01-30T04:00:39;6.78;;;5.72;;
11839;SDS011;5979;50.800;4.904;2024-01-30T04:03:06;6.32;;;5.43;;
11839;SDS011;5979;50.800;4.904;2024-01-30T04:05:32;6.45;;;5.30;;
11839;SDS011;5979;50.800;4.904;2024-01-30T04:07:57;8.10;;;5.55;;
11839;SDS011;5979;50.800;4.904;2024-01-30T04:10:23;7.35;;;5.35;;
11839;SDS011;5979;50.800;4.904;2024-01-30T04:12:50;6.57;;;5.03;;
11839;SDS011;5979;50.800;4.904;2024-01-30T04:15:16;6.30;;;5.70;;
11839;SDS011;5979;50.800;4.904;2024-01-30T04:17:42;5.55;;;5.05;;
11839;SDS011;5979;50.800;4.904;2024-01-30T04:20:13;6.80;;;5.15;;
11839;SDS011;5979;50.800;4.904;2024-01-30T04:22:45;5.75;;;5.25;;
11839;SDS011;5979;50.800;4.904;2024-01-30T04:25:14;5.70;;;5.30;;
11839;SDS011;5979;50.800;4.904;2024-01-30T04:27:40;5.53;;;4.75;;
11839;SDS011;5979;50.800;4.904;2024-01-30T04:30:05;7.38;;;5.68;;
11839;SDS011;5979;50.800;4.904;2024-01-30T04:32:32;6.57;;;5.97;;
11839;SDS011;5979;50.800;4.904;2024-01-30T04:34:58;6.40;;;5.35;;
11839;SDS011;5979;50.800;4.904;2024-01-30T04:37:24;5.50;;;5.00;;
11839;SDS011;5979;50.800;4.904;2024-01-30T04:39:50;6.55;;;4.80;;
11839;SDS011;5979;50.800;4.904;2024-01-30T04:42:16;6.93;;;4.93;;
11839;SDS011;5979;50.800;4.904;2024-01-30T04:44:42;6.15;;;5.03;;
11839;SDS011;5979;50.800;4.904;2024-01-30T04:47:08;6.40;;;4.95;;
11839;SDS011;5979;50.800;4.904;2024-01-30T04:49:36;5.25;;;4.20;;
11839;SDS011;5979;50.800;4.904;2024-01-30T04:52:01;5.65;;;5.10;;
11839;SDS011;5979;50.800;4.904;2024-01-30T04:54:27;9.20;;;5.50;;
11839;SDS011;5979;50.800;4.904;2024-01-30T04:56:53;5.38;;;4.97;;
11839;SDS011;5979;50.800;4.904;2024-01-30T04:59:18;5.57;;;5.07;;
11839;SDS011;5979;50.800;4.904;2024-01-30T05:01:44;6.63;;;5.45;;
11839;SDS011;5979;50.800;4.904;2024-01-30T05:04:10;6.32;;;5.72;;
11839;SDS011;5979;50.800;4.904;2024-01-30T05:06:36;6.68;;;5.70;;
11839;SDS011;5979;50.800;4.904;2024-01-30T05:09:02;6.68;;;5.45;;
11839;SDS011;5979;50.800;4.904;2024-01-30T05:11:29;6.03;;;5.53;;
11839;SDS011;5979;50.800;4.904;2024-01-30T05:13:55;6.30;;;5.75;;
11839;SDS011;5979;50.800;4.904;2024-01-30T05:16:21;6.05;;;5.50;;
11839;SDS011;5979;50.800;4.904;2024-01-30T05:18:47;6.25;;;5.55;;
11839;SDS011;5979;50.800;4.904;2024-01-30T05:21:12;6.00;;;5.53;;
11839;SDS011;5979;50.800;4.904;2024-01-30T05:23:38;6.05;;;5.45;;
11839;SDS011;5979;50.800;4.904;2024-01-30T05:26:05;7.82;;;6.05;;
11839;SDS011;5979;50.800;4.904;2024-01-30T05:28:30;7.13;;;6.38;;
11839;SDS011;5979;50.800;4.904;2024-01-30T05:30:57;6.30;;;5.70;;
11839;SDS011;5979;50.800;4.904;2024-01-30T05:33:22;7.13;;;5.35;;
11839;SDS011;5979;50.800;4.904;2024-01-30T05:35:48;5.78;;;5.13;;
11839;SDS011;5979;50.800;4.904;2024-01-30T05:38:15;6.03;;;5.28;;
11839;SDS011;5979;50.800;4.904;2024-01-30T05:40:41;6.78;;;5.78;;
11839;SDS011;5979;50.800;4.904;2024-01-30T05:43:06;5.65;;;5.10;;
11839;SDS011;5979;50.800;4.904;2024-01-30T05:45:33;5.72;;;5.18;;
11839;SDS011;5979;50.800;4.904;2024-01-30T05:48:00;6.88;;;5.03;;
11839;SDS011;5979;50.800;4.904;2024-01-30T05:50:26;5.40;;;4.90;;
11839;SDS011;5979;50.800;4.904;2024-01-30T05:52:52;6.22;;;5.13;;
11839;SDS011;5979;50.800;4.904;2024-01-30T05:55:18;5.80;;;5.30;;
11839;SDS011;5979;50.800;4.904;2024-01-30T05:57:43;5.47;;;5.07;;
11839;SDS011;5979;50.800;4.904;2024-01-30T06:00:09;7.55;;;5.22;;
11839;SDS011;5979;50.800;4.904;2024-01-30T06:02:35;7.18;;;5.18;;
11839;SDS011;5979;50.800;4.904;2024-01-30T06:05:01;6.45;;;4.75;;
11839;SDS011;5979;50.800;4.904;2024-01-30T06:07:27;5.43;;;4.95;;
11839;SDS011;5979;50.800;4.904;2024-01-30T06:09:53;6.85;;;6.15;;
11839;SDS011;5979;50.800;4.904;2024-01-30T06:12:18;6.55;;;5.60;;
11839;SDS011;5979;50.800;4.904;2024-01-30T06:14:44;6.30;;;5.80;;
11839;SDS011;5979;50.800;4.904;2024-01-30T06:17:09;6.03;;;5.45;;
11839;SDS011;5979;50.800;4.904;2024-01-30T06:19:36;5.90;;;4.90;;
11839;SDS011;5979;50.800;4.904;2024-01-30T06:22:05;7.47;;;5.40;;
11839;SDS011;5979;50.800;4.904;2024-01-30T06:24:30;5.68;;;5.00;;
11839;SDS011;5979;50.800;4.904;2024-01-30T06:26:56;6.30;;;5.70;;
11839;SDS011;5979;50.800;4.904;2024-01-30T06:29:22;8.10;;;5.55;;
11839;SDS011;5979;50.800;4.904;2024-01-30T06:31:49;6.32;;;5.50;;
11839;SDS011;5979;50.800;4.904;2024-01-30T06:34:15;5.65;;;5.15;;
11839;SDS011;5979;50.800;4.904;2024-01-30T06:36:41;5.88;;;5.38;;
11839;SDS011;5979;50.800;4.904;2024-01-30T06:39:06;6.30;;;5.70;;
11839;SDS011;5979;50.800;4.904;2024-01-30T06:41:32;7.07;;;5.88;;
11839;SDS011;5979;50.800;4.904;2024-01-30T06:43:58;5.60;;;5.10;;
11839;SDS011;5979;50.800;4.904;2024-01-30T06:46:24;6.50;;;5.60;;
11839;SDS011;5979;50.800;4.904;2024-01-30T06:48:49;6.53;;;5.90;;
11839;SDS011;5979;50.800;4.904;2024-01-30T06:51:15;8.20;;;6.00;;
11839;SDS011;5979;50.800;4.904;2024-01-30T06:53:41;7.63;;;5.78;;
11839;SDS011;5979;50.800;4.904;2024-01-30T06:56:06;7.07;;;6.13;;
11839;SDS011;5979;50.800;4.904;2024-01-30T06:58:33;7.13;;;5.68;;
11839;SDS011;5979;50.800;4.904;2024-01-30T07:00:58;5.65;;;5.15;;
11839;SDS011;5979;50.800;4.904;2024-01-30T07:03:24;7.57;;;5.65;;
11839;SDS011;5979;50.800;4.904;2024-01-30T07:05:49;6.65;;;5.70;;
11839;SDS011;5979;50.800;4.904;2024-01-30T07:08:15;7.00;;;5.32;;
11839;SDS011;5979;50.800;4.904;2024-01-30T07:10:44;6.30;;;5.70;;
11839;SDS011;5979;50.800;4.904;2024-01-30T07:13:13;6.97;;;5.90;;
11839;SDS011;5979;50.800;4.904;2024-01-30T07:15:41;6.22;;;5.63;;
11839;SDS011;5979;50.800;4.904;2024-01-30T07:18:07;6.53;;;5.93;;
11839;SDS011;5979;50.800;4.904;2024-01-30T07:20:34;8.30;;;5.22;;
11839;SDS011;5979;50.800;4.904;2024-01-30T07:23:00;6.00;;;5.35;;
11839;SDS011;5979;50.800;4.904;2024-01-30T07:25:26;6.53;;;5.80;;
11839;SDS011;5979;50.800;4.904;2024-01-30T07:27:55;6.38;;;5.78;;
11839;SDS011;5979;50.800;4.904;2024-01-30T07:30:21;7.43;;;5.90;;
11839;SDS011;5979;50.800;4.904;2024-01-30T07:32:48;7.93;;;5.88;;
11839;SDS011;5979;50.800;4.904;2024-01-30T07:35:14;7.05;;;5.90;;
11839;SDS011;5979;50.800;4.904;2024-01-30T07:37:39;7.38;;;6.07;;
11839;SDS011;5979;50.800;4.904;2024-01-30T07:40:05;6.10;;;5.60;;
11839;SDS011;5979;50.800;4.904;2024-01-30T07:42:32;7.03;;;6.38;;
11839;SDS011;5979;50.800;4.904;2024-01-30T07:44:58;6.57;;;5.90;;
11839;SDS011;5979;50.800;4.904;2024-01-30T07:47:24;6.28;;;5.63;;
11839;SDS011;5979;50.800;4.904;2024-01-30T07:49:49;7.65;;;6.07;;
11839;SDS011;5979;50.800;4.904;2024-01-30T07:52:16;9.00;;;6.07;;
11839;SDS011;5979;50.800;4.904;2024-01-30T07:54:47;6.90;;;5.80;;
11839;SDS011;5979;50.800;4.904;2024-01-30T07:57:14;6.05;;;5.50;;
11839;SDS011;5979;50.800;4.904;2024-01-30T07:59:41;5.70;;;5.28;;
11839;SDS011;5979;50.800;4.904;2024-01-30T08:02:08;6.82;;;6.22;;
11839;SDS011;5979;50.800;4.904;2024-01-30T08:04:34;6.50;;;5.88;;
11839;SDS011;5979;50.800;4.904;2024-01-30T08:07:00;6.32;;;5.72;;
11839;SDS011;5979;50.800;4.904;2024-01-30T08:09:26;7.47;;;5.75;;
11839;SDS011;5979;50.800;4.904;2024-01-30T08:11:52;8.02;;;6.20;;
11839;SDS011;5979;50.800;4.904;2024-01-30T08:14:18;7.40;;;5.97;;
11839;SDS011;5979;50.800;4.904;2024-01-30T08:16:43;7.22;;;6.50;;
11839;SDS011;5979;50.800;4.904;2024-01-30T08:19:09;7.63;;;6.15;;
11839;SDS011;5979;50.800;4.904;2024-01-30T08:21:35;8.45;;;6.65;;
11839;SDS011;5979;50.800;4.904;2024-01-30T08:24:04;7.38;;;6.65;;
11839;SDS011;5979;50.800;4.904;2024-01-30T08:26:31;6.65;;;6.05;;
11839;SDS011;5979;50.800;4.904;2024-01-30T08:28:57;6.72;;;6.13;;
11839;SDS011;5979;50.800;4.904;2024-01-30T08:31:23;7.45;;;6.75;;
11839;SDS011;5979;50.800;4.904;2024-01-30T08:33:49;8.80;;;6.57;;
11839;SDS011;5979;50.800;4.904;2024-01-30T08:36:15;7.70;;;6.90;;
11839;SDS011;5979;50.800;4.904;2024-01-30T08:38:41;6.90;;;6.20;;
11839;SDS011;5979;50.800;4.904;2024-01-30T08:41:07;6.80;;;6.10;;
11839;SDS011;5979;50.800;4.904;2024-01-30T08:43:33;7.18;;;6.47;;
11839;SDS011;5979;50.800;4.904;2024-01-30T08:45:59;7.13;;;6.43;;
11839;SDS011;5979;50.800;4.904;2024-01-30T08:48:25;7.35;;;6.65;;
11839;SDS011;5979;50.800;4.904;2024-01-30T08:50:51;6.85;;;6.15;;
11839;SDS011;5979;50.800;4.904;2024-01-30T08:53:17;7.25;;;6.55;;
11839;SDS011;5979;50.800;4.904;2024-01-30T08:55:43;7.97;;;6.07;;
11839;SDS011;5979;50.800;4.904;2024-01-30T08:58:09;7.47;;;6.63;;
11839;SDS011;5979;50.800;4.904;2024-01-30T09:00:34;10.70;;;6.72;;
11839;SDS011;5979;50.800;4.904;2024-01-30T09:03:00;8.27;;;6.38;;
11839;SDS011;5979;50.800;4.904;2024-01-30T09:05:26;6.53;;;6.03;;
11839;SDS011;5979;50.800;4.904;2024-01-30T09:07:51;7.03;;;6.32;;
11839;SDS011;5979;50.800;4.904;2024-01-30T09:10:17;7.95;;;6.13;;
11839;SDS011;5979;50.800;4.904;2024-01-30T09:12:43;7.43;;;6.60;;
11839;SDS011;5979;50.800;4.904;2024-01-30T09:15:08;10.88;;;6.72;;
11839;SDS011;5979;50.800;4.904;2024-01-30T09:17:34;8.40;;;6.53;;
11839;SDS011;5979;50.800;4.904;2024-01-30T09:20:00;10.50;;;7.20;;
11839;SDS011;5979;50.800;4.904;2024-01-30T09:22:26;9.25;;;6.53;;
11839;SDS011;5979;50.800;4.904;2024-01-30T09:24:51;10.80;;;6.68;;
11839;SDS011;5979;50.800;4.904;2024-01-30T09:27:17;6.85;;;6.18;;
11839;SDS011;5979;50.800;4.904;2024-01-30T09:29:42;8.30;;;6.47;;
11839;SDS011;5979;50.800;4.904;2024-01-30T09:32:08;9.35;;;6.20;;
11839;SDS011;5979;50.800;4.904;2024-01-30T09:34:34;8.30;;;6.32;;
11839;SDS011;5979;50.800;4.904;2024-01-30T09:36:59;7.75;;;6.80;;
11839;SDS011;5979;50.800;4.904;2024-01-30T09:39:25;8.20;;;6.53;;
11839;SDS011;5979;50.800;4.904;2024-01-30T09:42:15;7.53;;;6.65;;
11839;SDS011;5979;50.800;4.904;2024-01-30T09:44:43;7.57;;;6.80;;
11839;SDS011;5979;50.800;4.904;2024-01-30T09:47:11;7.07;;;6.38;;
11839;SDS011;5979;50.800;4.904;2024-01-30T09:49:37;11.52;;;6.68;;
11839;SDS011;5979;50.800;4.904;2024-01-30T09:52:05;12.65;;;6.72;;
11839;SDS011;5979;50.800;4.904;2024-01-30T09:54:31;8.77;;;6.43;;
11839;SDS011;5979;50.800;4.904;2024-01-30T09:56:58;7.50;;;6.38;;
11839;SDS011;5979;50.800;4.904;2024-01-30T09:59:24;10.20;;;7.13;;
11839;SDS011;5979;50.800;4.904;2024-01-30T10:01:50;8.65;;;6.60;;
11839;SDS011;5979;50.800;4.904;2024-01-30T10:04:16;9.77;;;6.57;;
11839;SDS011;5979;50.800;4.904;2024-01-30T10:06:42;10.45;;;7.05;;
11839;SDS011;5979;50.800;4.904;2024-01-30T10:09:08;10.80;;;6.63;;
11839;SDS011;5979;50.800;4.904;2024-01-30T10:11:34;10.85;;;6.70;;
11839;SDS011;5979;50.800;4.904;2024-01-30T10:14:01;13.70;;;6.88;;
11839;SDS011;5979;50.800;4.904;2024-01-30T10:16:27;11.98;;;7.35;;
11839;SDS011;5979;50.800;4.904;2024-01-30T10:18:53;9.30;;;7.25;;
11839;SDS011;5979;50.800;4.904;2024-01-30T10:21:18;8.55;;;7.07;;
11839;SDS011;5979;50.800;4.904;2024-01-30T10:23:44;9.18;;;7.53;;
11839;SDS011;5979;50.800;4.904;2024-01-30T10:26:10;9.63;;;8.00;;
11839;SDS011;5979;50.800;4.904;2024-01-30T10:28:35;15.90;;;7.70;;
11839;SDS011;5979;50.800;4.904;2024-01-30T10:31:01;11.00;;;7.97;;
11839;SDS011;5979;50.800;4.904;2024-01-30T10:33:30;10.60;;;8.07;;
11839;SDS011;5979;50.800;4.904;2024-01-30T10:35:59;10.23;;;6.78;;
11839;SDS011;5979;50.800;4.904;2024-01-30T10:38:28;12.05;;;8.05;;
11839;SDS011;5979;50.800;4.904;2024-01-30T10:40:59;13.05;;;7.97;;
11839;SDS011;5979;50.800;4.904;2024-01-30T10:43:49;11.88;;;7.38;;
11839;SDS011;5979;50.800;4.904;2024-01-30T10:46:18;9.48;;;7.32;;
11839;SDS011;5979;50.800;4.904;2024-01-30T10:48:57;10.95;;;7.22;;
11839;SDS011;5979;50.800;4.904;2024-01-30T10:51:25;10.55;;;7.05;;
11839;SDS011;5979;50.800;4.904;2024-01-30T10:53:51;9.50;;;7.10;;
11839;SDS011;5979;50.800;4.904;2024-01-30T10:56:18;11.38;;;7.28;;
11839;SDS011;5979;50.800;4.904;2024-01-30T10:58:47;10.52;;;7.32;;
11839;SDS011;5979;50.800;4.904;2024-01-30T11:01:14;8.30;;;7.10;;
11839;SDS011;5979;50.800;4.904;2024-01-30T11:03:41;9.05;;;6.90;;
11839;SDS011;5979;50.800;4.904;2024-01-30T11:06:10;8.60;;;6.82;;
11839;SDS011;5979;50.800;4.904;2024-01-30T11:08:43;9.32;;;7.47;;
11839;SDS011;5979;50.800;4.904;2024-01-30T11:11:09;8.75;;;7.07;;
11839;SDS011;5979;50.800;4.904;2024-01-30T11:13:35;8.32;;;7.43;;
11839;SDS011;5979;50.800;4.904;2024-01-30T11:16:02;14.02;;;8.00;;
11839;SDS011;5979;50.800;4.904;2024-01-30T11:18:31;8.77;;;7.85;;
11839;SDS011;5979;50.800;4.904;2024-01-30T11:20:58;13.20;;;8.43;;
11839;SDS011;5979;50.800;4.904;2024-01-30T11:23:26;13.50;;;8.07;;
11839;SDS011;5979;50.800;4.904;2024-01-30T11:25:56;13.25;;;7.80;;
11839;SDS011;5979;50.800;4.904;2024-01-30T11:28:22;10.77;;;8.68;;
11839;SDS011;5979;50.800;4.904;2024-01-30T11:30:48;14.43;;;8.63;;
11839;SDS011;5979;50.800;4.904;2024-01-30T11:33:27;11.02;;;8.35;;
11839;SDS011;5979;50.800;4.904;2024-01-30T11:35:56;12.32;;;8.57;;
11839;SDS011;5979;50.800;4.904;2024-01-30T11:38:23;13.80;;;9.23;;
11839;SDS011;5979;50.800;4.904;2024-01-30T11:40:51;9.00;;;8.15;;
11839;SDS011;5979;50.800;4.904;2024-01-30T11:43:17;11.98;;;8.75;;
11839;SDS011;5979;50.800;4.904;2024-01-30T11:45:43;13.30;;;9.10;;
11839;SDS011;5979;50.800;4.904;2024-01-30T11:48:11;10.23;;;8.63;;
11839;SDS011;5979;50.800;4.904;2024-01-30T11:50:38;14.18;;;9.35;;
11839;SDS011;5979;50.800;4.904;2024-01-30T11:53:04;11.73;;;9.20;;
11839;SDS011;5979;50.800;4.904;2024-01-30T11:55:30;9.43;;;8.52;;
11839;SDS011;5979;50.800;4.904;2024-01-30T11:57:57;9.05;;;8.15;;
11839;SDS011;5979;50.800;4.904;2024-01-30T12:00:23;10.93;;;8.75;;
11839;SDS011;5979;50.800;4.904;2024-01-30T12:02:49;10.73;;;6.32;;
11839;SDS011;5979;50.800;4.904;2024-01-30T12:05:16;5.82;;;4.07;;
11839;SDS011;5979;50.800;4.904;2024-01-30T12:07:44;6.80;;;3.78;;
11839;SDS011;5979;50.800;4.904;2024-01-30T12:10:10;5.45;;;2.67;;
11839;SDS011;5979;50.800;4.904;2024-01-30T12:12:38;2.22;;;2.00;;
11839;SDS011;5979;50.800;4.904;2024-01-30T12:15:06;4.53;;;2.78;;
11839;SDS011;5979;50.800;4.904;2024-01-30T12:17:33;2.38;;;2.10;;
11839;SDS011;5979;50.800;4.904;2024-01-30T12:22:41;3.42;;;2.10;;
11839;SDS011;5979;50.800;4.904;2024-01-30T12:25:12;6.32;;;2.00;;
11839;SDS011;5979;50.800;4.904;2024-01-30T12:27:39;3.28;;;2.20;;
11839;SDS011;5979;50.800;4.904;2024-01-30T12:30:09;5.80;;;2.28;;
11839;SDS011;5979;50.800;4.904;2024-01-30T12:32:37;3.72;;;2.28;;
11839;SDS011;5979;50.800;4.904;2024-01-30T12:35:07;2.20;;;2.10;;
11839;SDS011;5979;50.800;4.904;2024-01-30T12:37:35;3.00;;;2.08;;
11839;SDS011;5979;50.800;4.904;2024-01-30T12:40:01;2.75;;;1.77;;
11839;SDS011;5979;50.800;4.904;2024-01-30T12:42:27;1.70;;;1.60;;
11839;SDS011;5979;50.800;4.904;2024-01-30T12:44:53;1.95;;;1.48;;
11839;SDS011;5979;50.800;4.904;2024-01-30T12:47:20;1.50;;;1.40;;
11839;SDS011;5979;50.800;4.904;2024-01-30T12:49:46;1.73;;;1.63;;
11839;SDS011;5979;50.800;4.904;2024-01-30T12:52:13;2.38;;;1.42;;
11839;SDS011;5979;50.800;4.904;2024-01-30T12:54:41;3.22;;;1.42;;
11839;SDS011;5979;50.800;4.904;2024-01-30T12:57:07;1.70;;;1.48;;
11839;SDS011;5979;50.800;4.904;2024-01-30T12:59:33;1.65;;;1.55;;
11839;SDS011;5979;50.800;4.904;2024-01-30T13:02:00;2.90;;;1.98;;
11839;SDS011;5979;50.800;4.904;2024-01-30T13:04:26;2.50;;;1.15;;
11839;SDS011;5979;50.800;4.904;2024-01-30T13:06:52;1.13;;;1.10;;
11839;SDS011;5979;50.800;4.904;2024-01-30T13:09:18;1.50;;;1.40;;
11839;SDS011;5979;50.800;4.904;2024-01-30T13:11:44;1.38;;;1.20;;
11839;SDS011;5979;50.800;4.904;2024-01-30T13:14:09;1.77;;;1.67;;
11839;SDS011;5979;50.800;4.904;2024-01-30T13:16:35;1.30;;;1.20;;
11839;SDS011;5979;50.800;4.904;2024-01-30T13:19:01;1.55;;;1.10;;
11839;SDS011;5979;50.800;4.904;2024-01-30T13:21:27;2.75;;;1.00;;
11839;SDS011;5979;50.800;4.904;2024-01-30T13:23:53;1.67;;;1.05;;
11839;SDS011;5979;50.800;4.904;2024-01-30T13:26:20;1.17;;;1.05;;
11839;SDS011;5979;50.800;4.904;2024-01-30T13:28:46;1.92;;;1.20;;
11839;SDS011;5979;50.800;4.904;2024-01-30T13:31:12;1.10;;;1.10;;
11839;SDS011;5979;50.800;4.904;2024-01-30T13:33:39;1.38;;;1.13;;
11839;SDS011;5979;50.800;4.904;2024-01-30T13:36:05;1.98;;;1.20;;
11839;SDS011;5979;50.800;4.904;2024-01-30T13:38:35;0.90;;;0.90;;
11839;SDS011;5979;50.800;4.904;2024-01-30T13:41:01;1.40;;;1.30;;
11839;SDS011;5979;50.800;4.904;2024-01-30T13:43:27;2.05;;;1.00;;
11839;SDS011;5979;50.800;4.904;2024-01-30T13:45:53;1.17;;;1.10;;
11839;SDS011;5979;50.800;4.904;2024-01-30T13:48:19;1.88;;;1.40;;
11839;SDS011;5979;50.800;4.904;2024-01-30T13:50:45;1.08;;;1.02;;
11839;SDS011;5979;50.800;4.904;2024-01-30T13:53:11;1.00;;;0.90;;
11839;SDS011;5979;50.800;4.904;2024-01-30T13:55:37;3.55;;;0.73;;
11839;SDS011;5979;50.800;4.904;2024-01-30T13:58:04;4.30;;;1.05;;
11839;SDS011;5979;50.800;4.904;2024-01-30T14:00:30;0.88;;;0.82;;
11839;SDS011;5979;50.800;4.904;2024-01-30T14:02:56;1.02;;;0.68;;
11839;SDS011;5979;50.800;4.904;2024-01-30T14:05:23;1.67;;;1.20;;
11839;SDS011;5979;50.800;4.904;2024-01-30T14:07:50;1.52;;;1.00;;
11839;SDS011;5979;50.800;4.904;2024-01-30T14:10:16;0.55;;;0.55;;
11839;SDS011;5979;50.800;4.904;2024-01-30T14:12:43;1.02;;;0.93;;
11839;SDS011;5979;50.800;4.904;2024-01-30T14:15:09;2.40;;;0.80;;
11839;SDS011;5979;50.800;4.904;2024-01-30T14:17:35;0.95;;;0.90;;
11839;SDS011;5979;50.800;4.904;2024-01-30T14:20:02;1.23;;;1.13;;
11839;SDS011;5979;50.800;4.904;2024-01-30T14:22:32;0.82;;;0.82;;
11839;SDS011;5979;50.800;4.904;2024-01-30T14:24:58;3.55;;;0.82;;
11839;SDS011;5979;50.800;4.904;2024-01-30T14:27:25;1.27;;;1.13;;
11839;SDS011;5979;50.800;4.904;2024-01-30T14:29:51;1.77;;;1.13;;
11839;SDS011;5979;50.800;4.904;2024-01-30T14:32:16;1.10;;;0.90;;
11839;SDS011;5979;50.800;4.904;2024-01-30T14:34:42;2.08;;;1.08;;
11839;SDS011;5979;50.800;4.904;2024-01-30T14:37:07;2.25;;;1.00;;
11839;SDS011;5979;50.800;4.904;2024-01-30T14:39:33;2.30;;;1.02;;
11839;SDS011;5979;50.800;4.904;2024-01-30T14:42:02;2.97;;;1.20;;
11839;SDS011;5979;50.800;4.904;2024-01-30T14:44:28;2.45;;;1.27;;
11839;SDS011;5979;50.800;4.904;2024-01-30T14:46:55;2.25;;;1.17;;
11839;SDS011;5979;50.800;4.904;2024-01-30T14:49:21;1.23;;;1.13;;
11839;SDS011;5979;50.800;4.904;2024-01-30T14:51:47;1.63;;;1.20;;
11839;SDS011;5979;50.800;4.904;2024-01-30T14:54:12;1.83;;;1.52;;
11839;SDS011;5979;50.800;4.904;2024-01-30T14:56:38;1.23;;;1.05;;
11839;SDS011;5979;50.800;4.904;2024-01-30T14:59:04;2.65;;;1.10;;